createdAt,value
2022-10-05T00:01:56.330Z,0
2022-10-05T00:07:19.057Z,0
2022-10-05T00:12:41.393Z,0
2022-10-05T00:28:54.695Z,0
2022-10-05T00:34:17.444Z,0
2022-10-05T00:39:39.891Z,0
2022-10-05T00:45:02.578Z,0
2022-10-05T00:50:25.210Z,0
2022-10-05T00:55:47.828Z,0
2022-10-05T01:01:11.017Z,0
2022-10-05T01:06:34.224Z,0
2022-10-05T01:11:56.880Z,0
2022-10-05T01:17:19.312Z,0
2022-10-05T01:22:41.622Z,0
2022-10-05T01:28:04.406Z,0
2022-10-05T01:33:26.841Z,0
2022-10-05T01:38:49.468Z,0
2022-10-05T01:44:12.656Z,0
2022-10-05T01:49:35.397Z,0
2022-10-05T01:54:58.032Z,0
2022-10-05T02:11:32.127Z,0
2022-10-05T02:16:54.562Z,0
2022-10-05T02:22:19.325Z,0
2022-10-05T02:27:41.904Z,0
2022-10-05T02:33:04.812Z,0
2022-10-05T02:38:27.096Z,0
2022-10-05T02:43:52.032Z,0
2022-10-05T02:49:14.568Z,0
2022-10-05T02:54:37.320Z,0
2022-10-05T03:00:00.017Z,0
2022-10-05T03:05:49.631Z,0
2022-10-05T03:11:12.421Z,0
2022-10-05T03:16:34.855Z,0
2022-10-05T03:21:57.199Z,0
2022-10-05T03:27:21.987Z,0
2022-10-05T03:32:44.530Z,0
2022-10-05T03:38:07.743Z,0
2022-10-05T03:43:33.044Z,0
2022-10-05T03:48:55.471Z,0
2022-10-05T03:54:20.538Z,0
2022-10-05T03:59:48.536Z,0
2022-10-05T04:05:14.123Z,0
2022-10-05T04:15:59.432Z,0
2022-10-05T04:21:24.338Z,0
2022-10-05T04:26:47.838Z,0
2022-10-05T04:32:14.285Z,0
2022-10-05T04:37:36.969Z,0
2022-10-05T04:42:59.246Z,0
2022-10-05T04:48:21.579Z,0
2022-10-05T04:53:47.041Z,0
2022-10-05T04:59:33.988Z,0
2022-10-05T05:10:29.728Z,0
2022-10-05T05:15:52.427Z,0
2022-10-05T05:21:14.890Z,0
2022-10-05T05:26:39.329Z,0
2022-10-05T05:32:04.975Z,1
2022-10-05T05:37:27.946Z,8
2022-10-05T05:42:50.513Z,18.3
2022-10-05T05:48:13.264Z,21.3
2022-10-05T05:53:35.547Z,30.7
2022-10-05T05:59:07.838Z,45.2
2022-10-05T06:15:28.027Z,77.2
2022-10-05T06:20:53.784Z,67.8
2022-10-05T06:26:18.828Z,79.1
2022-10-05T06:31:41.481Z,82.9
2022-10-05T06:37:04.062Z,72.3
2022-10-05T06:42:27.009Z,108.4
2022-10-05T06:47:49.521Z,101.8
2022-10-05T06:53:11.954Z,121.6
2022-10-05T06:58:34.501Z,127.2
2022-10-05T07:04:10.464Z,107.4
2022-10-05T07:09:33.142Z,108.2
2022-10-05T07:15:10.888Z,96.3
2022-10-05T07:20:49.465Z,124.9
2022-10-05T07:26:12.443Z,157.5
2022-10-05T07:31:34.863Z,179.9
2022-10-05T07:37:00.210Z,153.1
2022-10-05T07:42:22.645Z,142
2022-10-05T08:26:09.016Z,295.8
2022-10-05T08:37:17.464Z,344.4
2022-10-05T08:42:40.181Z,344.1
2022-10-05T08:48:02.584Z,351.7
2022-10-05T08:53:25.218Z,387.4
2022-10-05T08:58:50.188Z,396.7
2022-10-05T09:04:16.860Z,353.3
2022-10-05T09:09:39.278Z,391.7
2022-10-05T09:15:26.609Z,530
2022-10-05T09:20:50.237Z,494.4
2022-10-05T09:26:18.872Z,535.3
2022-10-05T09:31:42.305Z,755.6
2022-10-05T09:37:05.458Z,851.4
2022-10-05T09:42:27.568Z,521.5
2022-10-05T09:47:57.542Z,988.8
2022-10-05T09:53:23.445Z,645.3
2022-10-05T09:58:47.790Z,618.6
2022-10-05T10:04:10.781Z,2133.5
2022-10-05T10:09:38.896Z,865.2
2022-10-05T10:15:04.081Z,1797.1
2022-10-05T10:20:26.500Z,1671.2
2022-10-05T10:31:12.489Z,1795.3
2022-10-05T10:36:35.694Z,1685.5
2022-10-05T10:41:58.568Z,1840.2
2022-10-05T10:47:21.661Z,2035.2
2022-10-05T10:52:48.395Z,1748.6
2022-10-05T10:58:20.279Z,1614.2
2022-10-05T11:03:43.559Z,1777.7
2022-10-05T11:09:24.030Z,1772.2
2022-10-05T11:14:46.784Z,1801.5
2022-10-05T11:20:13.041Z,1565.7
2022-10-05T11:25:35.722Z,1859.6
2022-10-05T11:31:07.578Z,1977.4
2022-10-05T11:36:31.471Z,1764.2
2022-10-05T11:41:54.317Z,1935.5
2022-10-05T11:47:16.916Z,1906.5
2022-10-05T11:52:39.669Z,1750.1
2022-10-05T11:58:02.612Z,1769.2
2022-10-05T12:04:58.563Z,1761.6
2022-10-05T12:10:21.134Z,1765.6
2022-10-05T12:15:53.234Z,1592.7
2022-10-05T12:21:15.919Z,2060.3
2022-10-05T12:26:38.692Z,1581.9
2022-10-05T12:32:01.325Z,1708.5
2022-10-05T12:37:24.972Z,1380.1
2022-10-05T12:53:20.891Z,1319.9
2022-10-05T12:58:51.985Z,1240.8
2022-10-05T13:04:18.125Z,1128.3
2022-10-05T13:09:40.975Z,1298.7
2022-10-05T13:15:11.336Z,1241.3
2022-10-05T13:20:39.631Z,1148.6
2022-10-05T13:26:02.141Z,1171.3
2022-10-05T13:31:28.334Z,1174.4
2022-10-05T13:37:00.764Z,1247.9
2022-10-05T13:42:24.139Z,1228.2
2022-10-05T13:47:56.071Z,1300.5
2022-10-05T13:53:22.633Z,1393
2022-10-05T13:58:45.509Z,1506.3
2022-10-05T14:04:28.806Z,1239.4
2022-10-05T14:15:14.089Z,1157.4
2022-10-05T14:20:36.907Z,1125.2
2022-10-05T14:26:03.655Z,1142.9
2022-10-05T14:31:27.413Z,1225.5
2022-10-05T14:36:50.413Z,1022.8
2022-10-05T14:42:13.132Z,956.8
2022-10-05T14:47:37.979Z,915.8
2022-10-05T14:53:00.416Z,820.7
2022-10-05T14:58:24.369Z,110.2
2022-10-05T15:03:46.220Z,81
2022-10-05T15:09:17.898Z,71.2
2022-10-05T15:14:40.403Z,65.2
2022-10-05T15:20:02.827Z,65.8
2022-10-05T15:25:34.289Z,69.1
2022-10-05T15:30:56.706Z,123.6
2022-10-05T15:36:20.129Z,105.2
2022-10-05T15:41:42.537Z,73.5
2022-10-05T15:47:04.675Z,91.6
2022-10-05T15:52:27.338Z,63.5
2022-10-05T15:58:15.803Z,70.4
2022-10-05T16:03:38.453Z,72.1
2022-10-05T16:09:04.670Z,73.1
2022-10-05T16:14:27.917Z,50.9
2022-10-05T16:19:50.600Z,61.4
2022-10-05T16:25:24.326Z,64.8
2022-10-05T16:30:46.830Z,36.6
2022-10-05T16:36:09.503Z,40.9
2022-10-05T16:41:39.477Z,30.2
2022-10-05T16:47:01.848Z,27.8
2022-10-05T16:52:27.144Z,21.4
2022-10-05T16:57:49.512Z,18.5
2022-10-05T17:03:14.454Z,18.6
2022-10-05T17:08:39.245Z,13
2022-10-05T17:14:10.637Z,4
2022-10-05T17:19:44.671Z,0
2022-10-05T17:25:07.120Z,0
2022-10-05T17:30:29.653Z,0
2022-10-05T17:35:52.602Z,0
2022-10-05T17:41:15.228Z,0
2022-10-05T17:46:38.003Z,0
2022-10-05T17:52:00.973Z,0
2022-10-05T18:02:48.861Z,0
2022-10-05T18:08:11.742Z,0
2022-10-05T18:13:34.438Z,0
2022-10-05T18:19:14.482Z,0
2022-10-05T18:24:37.132Z,0
2022-10-05T18:29:59.615Z,0
2022-10-05T18:35:22.209Z,0
2022-10-05T18:40:45.044Z,0
2022-10-05T18:46:08.243Z,0
2022-10-05T18:51:31.512Z,0
2022-10-05T18:56:54.173Z,0
2022-10-05T19:02:17.153Z,0
2022-10-05T19:13:23.591Z,0
2022-10-05T19:18:49.159Z,0
2022-10-05T19:24:11.562Z,0
2022-10-05T19:29:34.103Z,0
2022-10-05T19:34:56.778Z,0
2022-10-05T19:40:19.753Z,0
2022-10-05T19:45:42.874Z,0
2022-10-05T19:51:07.807Z,0
2022-10-05T19:56:31.286Z,0
2022-10-05T20:01:54.256Z,0
2022-10-05T20:07:25.163Z,0
2022-10-05T20:12:50.329Z,0
2022-10-05T20:56:35.514Z,0
2022-10-05T21:02:00.175Z,0
2022-10-05T21:08:00.393Z,0
2022-10-05T21:13:24.077Z,0
2022-10-05T21:19:21.591Z,0
2022-10-05T21:24:44.631Z,0
2022-10-05T21:35:32.241Z,0
2022-10-05T21:41:02.268Z,0
2022-10-05T21:46:27.315Z,0
2022-10-05T21:51:50.030Z,0
2022-10-05T21:57:12.495Z,0
2022-10-05T22:02:34.660Z,0
2022-10-05T22:07:57.127Z,0
2022-10-05T22:13:19.919Z,0
2022-10-05T22:18:45.895Z,0
2022-10-05T22:24:11.710Z,0
2022-10-05T22:29:34.685Z,0
2022-10-05T22:35:00.132Z,0
2022-10-05T22:40:22.884Z,0
2022-10-05T22:45:45.653Z,0
2022-10-05T22:51:17.621Z,0
2022-10-05T22:56:40.286Z,0
2022-10-05T23:02:05.870Z,0
2022-10-05T23:07:36.688Z,0
2022-10-05T23:13:01.312Z,0
2022-10-05T23:27:06.984Z,0
2022-10-05T23:32:29.310Z,0
2022-10-05T23:39:20.593Z,0
2022-10-05T23:44:43.788Z,0
2022-10-05T23:50:06.430Z,0
2022-10-05T23:55:31.263Z,0
